Time;durP1;ratioP1;P1;durP2;ratioP2;P2;SDS_P1;SDS_P2;PMS_P1;PMS_P2;Temp;Humidity;BMP_temperature;BMP_pressure;BME280_temperature;BME280_humidity;BME280_pressure;Samples;Min_cycle;Max_cycle;Signal;HPM_P1;HPM_P2
2022/09/17 00:02:38;;;;;;;14.30;4.72;;;;;;;10.79;100.00;101445.31;10563612;28;20043;-70
2022/09/17 00:07:39;;;;;;;6.68;3.10;;;;;;;11.01;100.00;101447.09;10582665;28;20031;-70
2022/09/17 00:12:40;;;;;;;2.80;1.45;;;;;;;11.04;100.00;101451.28;10581380;28;20040;-70
2022/09/17 00:17:40;;;;;;;7.40;3.00;;;;;;;11.10;100.00;101437.84;10582590;28;20177;-70
2022/09/17 00:22:41;;;;;;;11.32;2.65;;;;;;;11.26;100.00;101450.34;10589807;28;20554;-70
2022/09/17 00:27:41;;;;;;;23.00;4.18;;;;;;;11.40;100.00;101444.06;10590704;28;20379;-70
2022/09/17 00:32:41;;;;;;;15.35;4.72;;;;;;;11.57;100.00;101481.81;10592658;28;20039;-71
2022/09/17 00:37:42;;;;;;;9.00;4.05;;;;;;;11.03;100.00;101509.22;10590378;28;20082;-71
2022/09/17 00:42:44;;;;;;;16.00;4.57;;;;;;;10.75;100.00;101471.06;10588980;28;20395;-71
2022/09/17 00:47:46;;;;;;;11.48;4.22;;;;;;;10.71;100.00;101467.88;10570956;28;20122;-70
2022/09/17 00:52:49;;;;;;;15.73;4.88;;;;;;;10.73;100.00;101467.72;10555160;28;20045;-70
2022/09/17 00:57:50;;;;;;;7.72;3.30;;;;;;;10.74;100.00;101489.19;10591308;28;20111;-72
2022/09/17 01:02:52;;;;;;;11.10;3.22;;;;;;;10.70;100.00;101449.97;10588623;28;20034;-71
2022/09/17 01:08:20;;;;;;;6.00;2.70;;;;;;;10.58;100.00;101438.72;10590509;28;20036;-70
2022/09/17 01:13:26;;;;;;;3.78;2.10;;;;;;;10.48;100.00;101455.25;10580397;28;20463;-70
2022/09/17 01:18:50;;;;;;;12.00;2.83;;;;;;;10.44;100.00;101450.38;10553680;28;20035;-70
2022/09/17 01:24:25;;;;;;;17.25;4.28;;;;;;;10.43;100.00;101451.41;10573857;28;20042;-70
2022/09/17 01:29:47;;;;;;;14.52;4.32;;;;;;;10.47;100.00;101458.97;10587745;28;20443;-70
2022/09/17 01:35:18;;;;;;;10.85;3.65;;;;;;;10.43;100.00;101457.69;10572221;28;20103;-70
2022/09/17 01:40:26;;;;;;;11.32;3.05;;;;;;;10.38;100.00;101461.94;10574022;28;20046;-71
2022/09/17 01:45:50;;;;;;;16.98;3.63;;;;;;;10.37;100.00;101469.22;10569956;28;20095;-70
2022/09/17 01:50:55;;;;;;;10.38;2.85;;;;;;;10.41;100.00;101472.41;10577190;28;20127;-70
2022/09/17 01:55:56;;;;;;;6.82;3.70;;;;;;;10.44;100.00;101477.47;10570381;28;20047;-71
2022/09/17 02:00:59;;;;;;;16.98;3.08;;;;;;;10.55;100.00;101474.31;10567654;28;20035;-70
2022/09/17 02:06:09;;;;;;;18.02;3.20;;;;;;;10.66;100.00;101483.88;10551530;28;20028;-70
2022/09/17 02:11:12;;;;;;;10.00;3.92;;;;;;;10.68;100.00;101481.81;10568616;28;20107;-71
2022/09/17 02:16:16;;;;;;;10.13;3.13;;;;;;;10.62;100.00;101486.09;10569717;28;20027;-72
2022/09/17 02:21:34;;;;;;;11.68;2.58;;;;;;;10.62;100.00;101477.13;10567421;28;20035;-71
2022/09/17 02:26:34;;;;;;;7.75;2.40;;;;;;;10.69;100.00;101481.63;10553392;28;20024;-71
2022/09/17 02:31:35;;;;;;;16.17;3.08;;;;;;;10.75;100.00;101481.91;10567089;28;20024;-72
2022/09/17 02:36:35;;;;;;;19.63;2.47;;;;;;;10.78;100.00;101489.66;10584858;28;20114;-72
2022/09/17 02:41:45;;;;;;;8.07;2.67;;;;;;;10.90;100.00;101491.75;10565672;28;20069;-71
2022/09/17 02:47:14;;;;;;;12.88;2.75;;;;;;;10.87;100.00;101488.56;10566497;28;20382;-72
2022/09/17 02:52:23;;;;;;;16.38;2.50;;;;;;;11.01;100.00;101497.72;10566238;28;20416;-72
2022/09/17 02:57:29;;;;;;;14.23;3.60;;;;;;;11.05;100.00;101504.47;10584279;28;20074;-72
2022/09/17 03:02:33;;;;;;;12.85;3.83;;;;;;;11.04;100.00;101487.38;10549473;28;20040;-73
2022/09/17 03:07:34;;;;;;;10.27;2.92;;;;;;;11.05;100.00;101490.91;10549277;28;20035;-73
2022/09/17 03:12:35;;;;;;;10.25;2.72;;;;;;;11.00;100.00;101496.03;10568689;28;20034;-73
2022/09/17 03:17:36;;;;;;;9.18;2.63;;;;;;;10.96;100.00;101470.34;10583609;28;20046;-73
2022/09/17 03:22:36;;;;;;;12.40;2.90;;;;;;;10.92;100.00;101475.31;10549240;28;20023;-74
2022/09/17 03:27:36;;;;;;;4.40;1.90;;;;;;;10.98;100.00;101490.00;10583754;28;20447;-74
2022/09/17 03:32:37;;;;;;;8.18;2.20;;;;;;;10.98;100.00;101482.69;10586118;28;20040;-74
2022/09/17 03:37:37;;;;;;;9.18;2.65;;;;;;;10.94;100.00;101474.09;10564503;28;20071;-74
2022/09/17 03:42:38;;;;;;;5.75;1.40;;;;;;;10.88;100.00;101482.97;10564980;28;20032;-74
2022/09/17 03:47:38;;;;;;;3.03;1.63;;;;;;;10.93;100.00;101469.69;10565691;28;20067;-74
2022/09/17 03:52:38;;;;;;;9.20;2.30;;;;;;;11.04;100.00;101478.38;10581719;28;20144;-74
2022/09/17 03:57:39;;;;;;;4.10;1.92;;;;;;;11.12;100.00;101478.31;10582440;28;20031;-74
2022/09/17 04:02:39;;;;;;;5.78;2.25;;;;;;;11.10;100.00;101493.91;10582399;28;20032;-74
2022/09/17 04:07:40;;;;;;;11.23;2.25;;;;;;;11.08;100.00;101501.41;10583264;28;20032;-74
2022/09/17 04:12:40;;;;;;;5.80;2.33;;;;;;;11.13;100.00;101496.25;10582323;28;20031;-74
2022/09/17 04:17:41;;;;;;;7.82;1.60;;;;;;;11.16;100.00;101499.41;10582043;28;20023;-74
2022/09/17 04:22:41;;;;;;;4.07;1.83;;;;;;;11.33;100.00;101496.53;10581847;28;20069;-73
2022/09/17 04:27:42;;;;;;;4.80;1.92;;;;;;;11.44;100.00;101497.91;10582109;28;20067;-74
2022/09/17 04:32:43;;;;;;;7.90;2.88;;;;;;;11.56;100.00;101502.69;10563548;28;20031;-74
2022/09/17 04:37:51;;;;;;;2.03;1.05;;;;;;;11.62;100.00;101515.47;10562840;28;20051;-73
2022/09/17 04:42:52;;;;;;;8.73;2.45;;;;;;;11.60;100.00;101512.09;10582673;28;20067;-74
2022/09/17 04:47:53;;;;;;;8.20;2.33;;;;;;;11.41;100.00;101516.25;10586320;28;20031;-73
2022/09/17 04:52:53;;;;;;;3.55;2.08;;;;;;;11.28;100.00;101516.06;10581462;28;20038;-72
2022/09/17 04:57:54;;;;;;;7.78;2.10;;;;;;;11.21;100.00;101522.44;10581714;28;20028;-73
2022/09/17 05:02:54;;;;;;;19.05;2.78;;;;;;;11.15;100.00;101508.59;10581243;28;20440;-73
2022/09/17 05:07:55;;;;;;;8.02;1.45;;;;;;;11.06;100.00;101508.84;10588439;28;20177;-73
2022/09/17 05:12:55;;;;;;;6.13;1.50;;;;;;;11.07;100.00;101513.25;10588949;28;20035;-72
2022/09/17 05:17:56;;;;;;;8.48;2.45;;;;;;;11.11;100.00;101504.56;10570977;28;20107;-72
2022/09/17 05:22:56;;;;;;;2.35;1.52;;;;;;;11.32;100.00;101533.63;10570099;28;20047;-72
2022/09/17 05:27:57;;;;;;;8.73;1.88;;;;;;;11.27;100.00;101521.69;10553361;28;20093;-73
2022/09/17 05:33:01;;;;;;;4.80;0.77;;;;;;;11.03;100.00;101522.78;10587900;28;20436;-72
2022/09/17 05:38:03;;;;;;;2.15;1.63;;;;;;;10.79;100.00;101516.59;10570168;28;20055;-72
2022/09/17 05:43:05;;;;;;;4.78;2.25;;;;;;;10.50;100.00;101517.34;10587469;28;20451;-72
2022/09/17 05:48:06;;;;;;;3.47;1.45;;;;;;;10.37;100.00;101522.50;10570408;28;20459;-72
2022/09/17 05:53:09;;;;;;;8.88;2.28;;;;;;;10.45;100.00;101523.31;10586113;28;20083;-72
2022/09/17 05:58:17;;;;;;;22.58;3.08;;;;;;;10.88;100.00;101533.59;10569722;28;20034;-72
2022/09/17 06:03:18;;;;;;;7.25;2.30;;;;;;;11.00;100.00;101566.50;10588595;28;20032;-70
2022/09/17 06:08:19;;;;;;;1.90;1.42;;;;;;;10.90;100.00;101550.50;10584992;28;20024;-70
2022/09/17 06:13:19;;;;;;;4.13;1.70;;;;;;;10.82;100.00;101553.31;10586575;28;20387;-69
2022/09/17 06:18:20;;;;;;;3.65;2.45;;;;;;;10.73;100.00;101555.25;10568190;28;20027;-70
2022/09/17 06:23:20;;;;;;;7.97;2.35;;;;;;;10.71;100.00;101552.69;10550458;28;20039;-69
2022/09/17 06:28:21;;;;;;;7.25;1.85;;;;;;;10.77;100.00;101559.25;10584845;28;20054;-70
2022/09/17 06:33:21;;;;;;;8.88;2.30;;;;;;;11.41;100.00;101556.91;10584736;28;20043;-70
2022/09/17 06:38:22;;;;;;;10.52;2.53;;;;;;;11.37;100.00;101550.19;10585663;28;20428;-70
2022/09/17 06:43:22;;;;;;;6.00;2.33;;;;;;;11.63;100.00;101549.72;10568298;28;20051;-70
2022/09/17 06:48:23;;;;;;;11.35;2.42;;;;;;;11.79;100.00;101561.41;10583622;28;20531;-71
2022/09/17 06:53:24;;;;;;;13.32;3.10;;;;;;;13.25;100.00;101568.31;10566337;28;20165;-70
2022/09/17 06:58:24;;;;;;;4.28;2.00;;;;;;;14.87;100.00;101568.50;10583445;28;20032;-70
2022/09/17 07:03:25;;;;;;;12.02;2.40;;;;;;;13.89;100.00;101565.31;10583782;28;20027;-70
2022/09/17 07:08:25;;;;;;;9.95;2.85;;;;;;;12.99;100.00;101567.06;10582450;28;20036;-70
2022/09/17 07:13:25;;;;;;;3.42;1.65;;;;;;;12.57;100.00;101570.63;10584701;28;20118;-70
2022/09/17 07:18:26;;;;;;;2.80;1.88;;;;;;;12.44;100.00;101570.50;10565697;28;20056;-70
2022/09/17 07:23:28;;;;;;;3.65;1.55;;;;;;;14.60;100.00;101569.53;10569282;28;20039;-71
2022/09/17 07:28:29;;;;;;;1.88;1.13;;;;;;;15.97;100.00;101557.78;10583910;28;20056;-73
2022/09/17 07:33:29;;;;;;;6.95;1.80;;;;;;;16.87;100.00;101560.38;10565153;28;20051;-72
2022/09/17 07:38:32;;;;;;;4.03;1.55;;;;;;;17.35;100.00;101554.22;10583654;28;20043;-72
2022/09/17 07:43:33;;;;;;;4.72;1.67;;;;;;;17.98;100.00;101569.56;10583071;28;20050;-69
2022/09/17 07:48:34;;;;;;;2.55;1.60;;;;;;;18.03;100.00;101568.88;10564189;28;20031;-72
2022/09/17 07:53:34;;;;;;;6.65;1.85;;;;;;;17.55;100.00;101581.44;10549085;28;20050;-72
2022/09/17 07:58:35;;;;;;;4.15;2.63;;;;;;;16.08;100.00;101585.47;10582868;28;20039;-71
2022/09/17 08:03:37;;;;;;;1.67;0.85;;;;;;;14.78;100.00;101594.28;10582149;28;20547;-72
2022/09/17 08:08:38;;;;;;;1.10;0.65;;;;;;;14.19;100.00;101584.06;10565245;28;20031;-72
2022/09/17 08:13:38;;;;;;;5.40;1.35;;;;;;;15.68;100.00;101567.34;10547010;28;20527;-72
2022/09/17 08:18:39;;;;;;;6.35;1.75;;;;;;;17.81;100.00;101595.94;10564444;28;20164;-71
2022/09/17 08:23:40;;;;;;;6.38;1.92;;;;;;;15.62;100.00;101583.72;10562916;28;20528;-68
2022/09/17 08:28:45;;;;;;;4.32;1.80;;;;;;;14.50;100.00;101578.06;10562916;28;20058;-69
2022/09/17 08:33:45;;;;;;;5.78;1.90;;;;;;;14.97;100.00;101583.59;10563560;28;20485;-69
2022/09/17 08:38:46;;;;;;;8.05;2.78;;;;;;;17.13;100.00;101588.56;10581823;28;20160;-69
2022/09/17 08:43:55;;;;;;;2.65;1.10;;;;;;;17.59;100.00;101588.13;10571118;28;20027;-69
2022/09/17 08:49:06;;;;;;;1.85;1.40;;;;;;;18.64;100.00;101587.00;10589253;28;20103;-69
2022/09/17 08:54:21;;;;;;;4.97;1.80;;;;;;;16.38;100.00;101608.44;10554285;28;20074;-69
2022/09/17 08:59:26;;;;;;;5.82;0.82;;;;;;;16.25;100.00;101605.78;10590656;28;20043;-69
2022/09/17 09:04:26;;;;;;;6.80;1.38;;;;;;;18.19;100.00;101592.91;10571453;28;20403;-70
2022/09/17 09:09:29;;;;;;;10.75;2.22;;;;;;;18.30;100.00;101599.50;10588402;28;20026;-70
2022/09/17 09:14:32;;;;;;;1.30;1.13;;;;;;;17.73;100.00;101599.75;10554330;28;20059;-71
2022/09/17 09:19:37;;;;;;;1.75;1.17;;;;;;;18.25;100.00;101596.63;10587344;28;20039;-70
2022/09/17 09:25:04;;;;;;;2.17;1.30;;;;;;;17.99;100.00;101603.28;10553995;28;20024;-70
2022/09/17 09:30:09;;;;;;;4.22;1.83;;;;;;;17.03;100.00;101610.13;10571803;28;20099;-69
2022/09/17 09:35:29;;;;;;;5.15;1.35;;;;;;;17.36;100.00;101605.22;10571752;28;20070;-69
2022/09/17 09:40:36;;;;;;;5.18;2.05;;;;;;;18.94;100.00;101588.88;10553112;28;20034;-70
2022/09/17 09:46:19;;;;;;;3.28;2.05;;;;;;;20.28;100.00;101597.09;10572235;28;20071;-71
2022/09/17 09:51:25;;;;;;;4.07;2.00;;;;;;;20.56;100.00;101579.78;10570573;28;20122;-68
2022/09/17 09:56:28;;;;;;;6.68;2.72;;;;;;;19.12;100.00;101590.69;10587318;28;20114;-69
2022/09/17 10:01:30;;;;;;;1.88;1.50;;;;;;;17.33;100.00;101602.09;10586378;28;20363;-68
2022/09/17 10:06:30;;;;;;;13.80;3.03;;;;;;;17.63;100.00;101596.72;10552067;28;20044;-69
2022/09/17 10:11:34;;;;;;;11.57;2.80;;;;;;;18.31;100.00;101590.19;10550502;28;20487;-69
2022/09/17 10:16:35;;;;;;;6.63;2.40;;;;;;;19.27;100.00;101589.16;10568308;28;20043;-70
2022/09/17 10:21:38;;;;;;;5.32;2.13;;;;;;;18.19;100.00;101617.59;10567138;28;20036;-69
2022/09/17 10:26:38;;;;;;;2.60;1.80;;;;;;;18.63;100.00;101607.25;10567679;28;20169;-68
2022/09/17 10:31:45;;;;;;;3.33;1.67;;;;;;;18.30;100.00;101611.31;10586170;28;20111;-67
2022/09/17 10:36:46;;;;;;;2.50;2.03;;;;;;;19.76;100.00;101610.88;10567470;28;20050;-67
2022/09/17 10:42:11;;;;;;;3.70;1.38;;;;;;;18.83;100.00;101608.91;10566694;28;20482;-67
2022/09/17 10:47:14;;;;;;;10.98;3.10;;;;;;;18.43;100.00;101607.53;10569986;28;20286;-67
2022/09/17 10:52:22;;;;;;;5.15;2.17;;;;;;;18.53;100.00;101602.31;10549600;28;20028;-68
2022/09/17 10:57:53;;;;;;;6.28;3.05;;;;;;;17.21;100.00;101599.25;10568232;28;20401;-68
2022/09/17 11:03:20;;;;;;;11.60;2.72;;;;;;;18.60;100.00;101591.25;10566132;28;20028;-68
2022/09/17 11:08:27;;;;;;;5.90;2.88;;;;;;;20.35;100.00;101583.19;10552746;28;20454;-69
2022/09/17 11:13:37;;;;;;;14.85;3.85;;;;;;;21.27;100.00;101582.03;10566347;28;20115;-68
2022/09/17 11:18:59;;;;;;;4.78;2.38;;;;;;;21.28;100.00;101592.81;10564935;28;20107;-73
2022/09/17 11:24:33;;;;;;;6.70;2.08;;;;;;;20.65;100.00;101589.28;10583901;28;20032;-72
2022/09/17 11:29:42;;;;;;;4.55;1.27;;;;;;;18.84;100.00;101599.59;10582788;28;20474;-73
2022/09/17 11:35:04;;;;;;;2.63;2.42;;;;;;;18.28;100.00;101612.59;10565755;28;20092;-70
2022/09/17 11:40:20;;;;;;;5.07;2.63;;;;;;;17.62;100.00;101641.59;10566418;28;20035;-70
2022/09/17 11:45:33;;;;;;;10.15;3.85;;;;;;;15.79;100.00;101625.91;10582353;28;20115;-67
2022/09/17 11:50:40;;;;;;;5.22;2.90;;;;;;;17.17;100.00;101619.91;10564440;28;20024;-68
2022/09/17 11:55:45;;;;;;;6.18;3.20;;;;;;;18.29;100.00;101609.66;10583007;28;20131;-70
2022/09/17 12:00:51;;;;;;;8.32;2.80;;;;;;;19.79;100.00;101596.66;10563985;28;20024;-69
2022/09/17 12:05:54;;;;;;;12.23;3.22;;;;;;;19.18;100.00;101606.22;10564889;28;20019;-69
2022/09/17 12:11:05;;;;;;;4.57;1.95;;;;;;;18.51;100.00;101609.16;10563740;28;20136;-70
2022/09/17 12:16:10;;;;;;;13.00;3.25;;;;;;;19.13;100.00;101601.41;10570295;28;20032;-70
2022/09/17 12:21:13;;;;;;;11.47;2.10;;;;;;;19.50;100.00;101596.53;10590056;28;20024;-70
2022/09/17 12:26:40;;;;;;;4.13;2.47;;;;;;;19.38;100.00;101614.09;10573343;28;20350;-70
2022/09/17 12:31:54;;;;;;;5.93;2.93;;;;;;;19.93;100.00;101606.28;10582229;28;20114;-71
2022/09/17 12:37:07;;;;;;;3.13;2.13;;;;;;;20.40;100.00;101594.31;10589084;28;20108;-71
2022/09/17 12:42:31;;;;;;;12.13;3.15;;;;;;;20.48;100.00;101602.13;10556013;28;20488;-70
2022/09/17 12:47:52;;;;;;;1.77;1.67;;;;;;;20.78;100.00;101604.66;10571762;28;20045;-69
2022/09/17 12:53:07;;;;;;;2.17;1.90;;;;;;;20.62;100.00;101611.81;10588087;28;20032;-69
2022/09/17 12:58:18;;;;;;;5.20;2.65;;;;;;;20.82;100.00;101607.75;10589559;28;20055;-70
2022/09/17 13:03:24;;;;;;;7.28;2.47;;;;;;;21.12;100.00;101594.50;10571203;28;20042;-70
2022/09/17 13:08:43;;;;;;;5.53;3.10;;;;;;;21.08;100.00;101593.31;10553446;28;20028;-69
2022/09/17 13:13:54;;;;;;;9.73;2.25;;;;;;;19.68;100.00;101606.56;10569860;28;20481;-67
2022/09/17 13:19:24;;;;;;;9.27;2.65;;;;;;;19.53;100.00;101603.47;10589548;28;20062;-69
2022/09/17 13:24:27;;;;;;;7.32;2.03;;;;;;;18.47;100.00;101607.91;10573115;28;20119;-68
2022/09/17 13:29:45;;;;;;;3.42;1.80;;;;;;;18.21;100.00;101606.38;10586234;28;20028;-68
2022/09/17 13:34:46;;;;;;;7.45;2.65;;;;;;;19.28;100.00;101603.72;10587221;28;20039;-69
2022/09/17 13:39:48;;;;;;;8.80;2.03;;;;;;;19.99;100.00;101596.25;10570892;28;20067;-70
2022/09/17 13:45:10;;;;;;;8.80;2.53;;;;;;;20.65;100.00;101604.97;10568863;28;20105;-73
2022/09/17 13:50:11;;;;;;;2.97;2.55;;;;;;;20.60;100.00;101607.63;10568114;28;20028;-68
2022/09/17 13:55:34;;;;;;;11.68;3.67;;;;;;;19.89;100.00;101615.28;10551423;28;20032;-68
2022/09/17 14:00:57;;;;;;;2.80;2.00;;;;;;;20.36;100.00;101612.38;10568171;28;20502;-71
2022/09/17 14:06:18;;;;;;;14.73;2.42;;;;;;;19.88;100.00;101622.69;10567649;28;20067;-70
2022/09/17 14:11:21;;;;;;;13.25;3.15;;;;;;;19.87;100.00;101610.00;10586114;28;20366;-70
2022/09/17 14:16:34;;;;;;;8.90;2.20;;;;;;;19.65;100.00;101623.53;10585020;28;20084;-70
2022/09/17 14:21:34;;;;;;;7.93;2.05;;;;;;;19.38;100.00;101625.91;10587770;28;20028;-69
2022/09/17 14:26:44;;;;;;;8.05;2.28;;;;;;;19.13;100.00;101630.78;10550331;28;20451;-71
2022/09/17 14:31:44;;;;;;;1.83;1.67;;;;;;;18.92;100.00;101635.78;10584268;28;20031;-70
2022/09/17 14:36:44;;;;;;;3.85;1.63;;;;;;;18.83;100.00;101622.63;10584216;28;20063;-67
2022/09/17 14:41:45;;;;;;;3.85;2.40;;;;;;;18.44;100.00;101628.44;10566331;28;20122;-72
2022/09/17 14:46:59;;;;;;;1.65;1.55;;;;;;;18.01;100.00;101612.94;10584052;28;20035;-68
2022/09/17 14:52:00;;;;;;;14.27;2.60;;;;;;;17.04;100.00;101622.75;10584454;28;20032;-69
2022/09/17 14:57:19;;;;;;;2.17;1.75;;;;;;;16.80;100.00;101617.03;10586556;28;20451;-71
2022/09/17 15:02:29;;;;;;;14.68;2.17;;;;;;;16.90;100.00;101639.25;10567304;28;20020;-69
2022/09/17 15:07:29;;;;;;;8.90;2.30;;;;;;;16.76;92.38;101632.22;10583962;28;20525;-70
2022/09/17 15:12:29;;;;;;;14.95;3.17;;;;;;;16.35;97.76;101652.59;10584028;28;20127;-70
2022/09/17 15:17:32;;;;;;;7.38;3.35;;;;;;;15.02;100.00;101666.47;10548029;28;20451;-69
2022/09/17 15:22:33;;;;;;;6.00;2.90;;;;;;;14.31;100.00;101668.78;10565459;28;20036;-69
2022/09/17 15:27:37;;;;;;;11.20;3.00;;;;;;;14.34;100.00;101654.75;10564815;28;20115;-68
2022/09/17 15:32:48;;;;;;;10.27;2.00;;;;;;;14.62;100.00;101641.03;10567046;28;20378;-68
2022/09/17 15:37:52;;;;;;;11.07;3.30;;;;;;;14.69;100.00;101630.13;10565956;28;20044;-68
2022/09/17 15:43:03;;;;;;;7.70;2.03;;;;;;;14.50;100.00;101632.56;10584732;28;20050;-69
2022/09/17 15:48:04;;;;;;;6.28;2.50;;;;;;;14.27;100.00;101648.44;10548940;28;20024;-68
2022/09/17 15:53:07;;;;;;;4.88;2.30;;;;;;;13.96;100.00;101668.81;10548699;28;20485;-68
2022/09/17 15:58:25;;;;;;;6.05;2.22;;;;;;;13.28;100.00;101686.78;10583018;28;20027;-67
2022/09/17 16:03:38;;;;;;;4.20;2.13;;;;;;;12.72;100.00;101682.84;10564861;28;20475;-67
2022/09/17 16:08:38;;;;;;;6.72;2.13;;;;;;;12.45;100.00;101678.16;10582318;28;20460;-68
2022/09/17 16:13:39;;;;;;;8.90;2.50;;;;;;;12.43;100.00;101659.31;10582927;28;20039;-68
2022/09/17 16:18:39;;;;;;;4.40;2.60;;;;;;;12.43;100.00;101663.91;10563946;28;20035;-68
2022/09/17 16:23:40;;;;;;;4.05;2.53;;;;;;;12.39;100.00;101646.31;10581761;28;20056;-68
2022/09/17 16:28:40;;;;;;;6.60;2.22;;;;;;;12.36;100.00;101649.41;10581925;28;20400;-68
2022/09/17 16:33:41;;;;;;;1.85;1.50;;;;;;;12.56;100.00;101645.88;10581396;28;20036;-68
2022/09/17 16:38:41;;;;;;;9.45;2.33;;;;;;;12.74;100.00;101648.16;10563204;28;20101;-69
2022/09/17 16:43:41;;;;;;;1.52;1.33;;;;;;;12.70;100.00;101638.72;10580959;28;20122;-68
2022/09/17 16:48:44;;;;;;;7.63;2.22;;;;;;;12.62;100.00;101648.88;10581533;28;20038;-69
2022/09/17 16:53:44;;;;;;;8.10;2.08;;;;;;;12.78;100.00;101654.06;10582483;28;20478;-69
2022/09/17 16:58:45;;;;;;;9.80;2.85;;;;;;;12.84;100.00;101639.69;10580086;28;20118;-69
2022/09/17 17:03:47;;;;;;;4.97;1.67;;;;;;;12.76;100.00;101670.56;10554306;28;20031;-69
2022/09/17 17:08:48;;;;;;;6.25;2.17;;;;;;;12.53;100.00;101661.72;10572584;28;20080;-68
2022/09/17 17:13:48;;;;;;;2.25;1.45;;;;;;;12.21;100.00;101649.44;10588720;28;20035;-68
2022/09/17 17:18:52;;;;;;;4.18;2.50;;;;;;;12.13;100.00;101644.13;10572014;28;20035;-68
2022/09/17 17:23:52;;;;;;;4.18;2.03;;;;;;;11.94;100.00;101650.97;10588378;28;20059;-68
2022/09/17 17:28:52;;;;;;;2.53;2.25;;;;;;;11.89;100.00;101659.66;10588872;28;20071;-69
2022/09/17 17:33:53;;;;;;;2.55;1.90;;;;;;;11.87;100.00;101653.59;10588457;28;20519;-69
2022/09/17 17:38:57;;;;;;;1.23;1.05;;;;;;;12.07;100.00;101654.69;10570053;28;20112;-70
2022/09/17 17:43:57;;;;;;;2.10;1.77;;;;;;;12.20;100.00;101647.75;10568404;28;20407;-70
2022/09/17 17:48:58;;;;;;;2.53;1.67;;;;;;;12.28;100.00;101644.91;10587629;28;20031;-69
2022/09/17 17:53:58;;;;;;;2.47;2.17;;;;;;;12.32;100.00;101644.38;10586804;28;20062;-70
2022/09/17 17:58:59;;;;;;;8.20;2.50;;;;;;;12.31;100.00;101644.53;10585058;28;20032;-70
2022/09/17 18:04:01;;;;;;;2.45;1.63;;;;;;;12.42;100.00;101637.78;10586747;28;20463;-70
2022/09/17 18:09:02;;;;;;;9.40;3.28;;;;;;;12.60;100.00;101638.19;10586870;28;20118;-70
2022/09/17 18:14:02;;;;;;;7.20;2.78;;;;;;;12.75;100.00;101635.41;10567636;28;20039;-70
2022/09/17 18:19:03;;;;;;;14.48;4.63;;;;;;;12.90;100.00;101641.63;10586118;28;20067;-69
2022/09/17 18:24:03;;;;;;;40.75;22.20;;;;;;;12.89;100.00;101639.97;10568085;28;20081;-69
2022/09/17 18:29:04;;;;;;;17.70;9.43;;;;;;;12.95;100.00;101650.03;10585445;28;20119;-69
2022/09/17 18:34:12;;;;;;;138.52;72.82;;;;;;;12.97;100.00;101647.13;10566953;28;20112;-69
2022/09/17 18:39:13;;;;;;;4.68;1.98;;;;;;;12.70;100.00;101670.47;10568581;28;20058;-69
2022/09/17 18:44:14;;;;;;;13.85;3.25;;;;;;;12.45;100.00;101678.16;10586215;28;20063;-69
2022/09/17 18:49:14;;;;;;;15.30;2.38;;;;;;;12.29;100.00;101677.34;10585613;28;20052;-69
2022/09/17 18:54:15;;;;;;;4.65;2.35;;;;;;;12.24;100.00;101679.75;10584679;28;20039;-69
2022/09/17 18:59:15;;;;;;;13.05;3.45;;;;;;;12.22;100.00;101680.97;10584411;28;20507;-69
2022/09/17 19:04:16;;;;;;;9.73;2.47;;;;;;;12.15;100.00;101689.03;10566722;28;20044;-69
2022/09/17 19:09:16;;;;;;;11.05;3.63;;;;;;;12.17;100.00;101684.28;10584535;28;20095;-69
2022/09/17 19:14:17;;;;;;;9.90;3.90;;;;;;;12.31;100.00;101690.72;10583695;28;20061;-69
2022/09/17 19:19:17;;;;;;;9.45;3.55;;;;;;;12.38;100.00;101678.06;10565208;28;20485;-69
2022/09/17 19:24:18;;;;;;;7.53;1.60;;;;;;;12.55;100.00;101676.81;10565522;28;20032;-69
2022/09/17 19:29:18;;;;;;;4.97;1.48;;;;;;;12.74;100.00;101664.47;10582659;28;20038;-69
2022/09/17 19:34:19;;;;;;;9.30;2.85;;;;;;;12.79;100.00;101677.47;10584508;28;20118;-70
2022/09/17 19:39:19;;;;;;;10.60;2.67;;;;;;;12.94;100.00;101680.13;10532199;28;20086;-69
2022/09/17 19:44:19;;;;;;;16.88;2.67;;;;;;;13.07;100.00;101707.44;10582095;28;20371;-70
2022/09/17 19:49:20;;;;;;;1.27;1.17;;;;;;;12.92;100.00;101691.22;10583213;28;20157;-70
2022/09/17 19:54:20;;;;;;;3.10;1.45;;;;;;;12.62;100.00;101687.75;10565388;28;20040;-70
2022/09/17 19:59:21;;;;;;;4.93;1.60;;;;;;;12.57;100.00;101692.91;10547952;28;20035;-69
2022/09/17 20:04:21;;;;;;;6.18;2.13;;;;;;;12.52;100.00;101701.63;10564718;28;20118;-70
2022/09/17 20:09:21;;;;;;;9.07;2.38;;;;;;;12.53;100.00;101694.31;10548458;28;20028;-70
2022/09/17 20:14:22;;;;;;;9.65;1.50;;;;;;;12.41;100.00;101690.41;10582827;28;20093;-70
2022/09/17 20:19:22;;;;;;;9.18;2.33;;;;;;;12.30;100.00;101679.00;10564107;28;20047;-70
2022/09/17 20:24:23;;;;;;;6.55;1.83;;;;;;;12.18;100.00;101685.13;10582306;28;20039;-70
2022/09/17 20:29:23;;;;;;;13.57;3.25;;;;;;;12.10;100.00;101691.50;10582462;28;20038;-70
2022/09/17 20:34:24;;;;;;;10.73;3.15;;;;;;;12.29;100.00;101690.91;10582941;28;20043;-70
2022/09/17 20:39:24;;;;;;;9.70;2.28;;;;;;;12.41;100.00;101677.69;10591747;28;20134;-71
2022/09/17 20:44:24;;;;;;;5.68;2.13;;;;;;;12.44;100.00;101684.59;10590369;28;20062;-70
2022/09/17 20:49:25;;;;;;;4.50;2.47;;;;;;;12.46;100.00;101680.66;10587637;28;20458;-70
2022/09/17 20:54:25;;;;;;;7.43;2.08;;;;;;;12.70;100.00;101694.94;10588529;28;20043;-70
2022/09/17 20:59:31;;;;;;;3.65;1.27;;;;;;;12.77;100.00;101682.28;10589375;28;20035;-70
2022/09/17 21:04:31;;;;;;;6.38;1.85;;;;;;;12.70;100.00;101684.06;10587115;28;20403;-70
2022/09/17 21:09:33;;;;;;;9.10;2.42;;;;;;;12.64;100.00;101696.56;10587962;28;20027;-69
2022/09/17 21:14:33;;;;;;;3.17;2.00;;;;;;;12.69;100.00;101725.88;10554558;28;20394;-70
2022/09/17 21:19:34;;;;;;;14.40;2.80;;;;;;;12.49;100.00;101712.03;10573812;28;20118;-70
2022/09/17 21:24:34;;;;;;;16.92;3.33;;;;;;;12.17;100.00;101719.56;10588842;28;20399;-70
2022/09/17 21:29:35;;;;;;;3.40;2.15;;;;;;;11.94;100.00;101702.56;10587524;28;20386;-70
2022/09/17 21:34:35;;;;;;;18.15;3.15;;;;;;;11.80;100.00;101701.47;10587307;28;20122;-69
2022/09/17 21:39:35;;;;;;;7.78;2.55;;;;;;;11.81;100.00;101695.03;10588503;28;20051;-70
2022/09/17 21:44:36;;;;;;;12.90;2.80;;;;;;;12.05;100.00;101699.34;10590767;28;20324;-71
2022/09/17 21:49:36;;;;;;;23.02;2.55;;;;;;;12.21;100.00;101704.59;10588088;28;20070;-71
2022/09/17 21:54:37;;;;;;;6.88;2.60;;;;;;;12.32;100.00;101701.41;10588048;28;20031;-71
2022/09/17 21:59:37;;;;;;;9.48;2.45;;;;;;;12.38;100.00;101701.66;10589125;28;20039;-70
2022/09/17 22:04:37;;;;;;;1.60;1.15;;;;;;;12.48;100.00;101711.22;10584501;28;20392;-70
2022/09/17 22:09:38;;;;;;;7.70;0.98;;;;;;;12.36;100.00;101698.31;10567747;28;20032;-70
2022/09/17 22:14:38;;;;;;;4.22;1.23;;;;;;;12.26;100.00;101707.59;10586372;28;20066;-70
2022/09/17 22:19:39;;;;;;;9.27;1.92;;;;;;;12.21;100.00;101698.31;10586878;28;20467;-70
2022/09/17 22:24:43;;;;;;;6.57;2.10;;;;;;;12.27;100.00;101681.25;10585893;28;20081;-71
2022/09/17 22:29:43;;;;;;;3.65;1.63;;;;;;;12.35;100.00;101678.47;10567801;28;20036;-70
2022/09/17 22:34:44;;;;;;;3.45;1.55;;;;;;;12.57;100.00;101679.31;10586563;28;20036;-70
2022/09/17 22:39:44;;;;;;;4.57;1.70;;;;;;;12.67;100.00;101689.91;10585898;28;20527;-69
2022/09/17 22:44:44;;;;;;;17.63;2.83;;;;;;;12.40;100.00;101692.28;10585044;28;20070;-69
2022/09/17 22:49:45;;;;;;;2.90;1.92;;;;;;;12.31;100.00;101693.44;10584770;28;20039;-69
2022/09/17 22:54:45;;;;;;;7.60;2.35;;;;;;;12.27;100.00;101690.25;10584734;28;20110;-70
2022/09/17 22:59:45;;;;;;;1.83;1.10;;;;;;;12.25;100.00;101691.47;10566372;28;20036;-70